sensor_id;sensor_type;location;lat;lon;timestamp;pressure;altitude;pressure_sealevel;temperature;humidity
64200;BME280;50516;52.272;5.136;2023-01-27T00:01:50;102596.47;;;5.81;86.06
64200;BME280;50516;52.272;5.136;2023-01-27T00:04:15;102603.00;;;5.87;86.22
64200;BME280;50516;52.272;5.136;2023-01-27T00:06:41;102598.19;;;5.89;86.39
64200;BME280;50516;52.272;5.136;2023-01-27T00:09:06;102607.63;;;6.15;85.66
64200;BME280;50516;52.272;5.136;2023-01-27T00:11:31;102605.06;;;6.07;85.66
64200;BME280;50516;52.272;5.136;2023-01-27T00:14:15;102591.06;;;6.16;85.33
64200;BME280;50516;52.272;5.136;2023-01-27T00:16:41;102602.97;;;6.09;85.14
64200;BME280;50516;52.272;5.136;2023-01-27T00:19:06;102582.09;;;6.22;85.07
64200;BME280;50516;52.272;5.136;2023-01-27T00:21:31;102587.47;;;6.09;85.14
64200;BME280;50516;52.272;5.136;2023-01-27T00:24:15;102595.09;;;6.20;85.10
64200;BME280;50516;52.272;5.136;2023-01-27T00:26:59;102597.88;;;6.27;84.51
64200;BME280;50516;52.272;5.136;2023-01-27T00:29:25;102605.25;;;6.05;85.31
64200;BME280;50516;52.272;5.136;2023-01-27T00:31:50;102591.22;;;6.08;85.67
64200;BME280;50516;52.272;5.136;2023-01-27T00:34:34;102595.84;;;6.08;85.60
64200;BME280;50516;52.272;5.136;2023-01-27T00:36:59;102596.09;;;6.13;85.43
64200;BME280;50516;52.272;5.136;2023-01-27T00:39:25;102591.59;;;5.98;86.17
64200;BME280;50516;52.272;5.136;2023-01-27T00:41:50;102598.56;;;5.86;86.63
64200;BME280;50516;52.272;5.136;2023-01-27T00:44:15;102609.13;;;5.96;86.58
64200;BME280;50516;52.272;5.136;2023-01-27T00:46:41;102593.28;;;5.78;86.48
64200;BME280;50516;52.272;5.136;2023-01-27T00:49:08;102600.66;;;5.84;86.75
64200;BME280;50516;52.272;5.136;2023-01-27T00:51:33;102610.13;;;6.10;86.05
64200;BME280;50516;52.272;5.136;2023-01-27T00:54:00;102610.22;;;6.23;85.25
64200;BME280;50516;52.272;5.136;2023-01-27T00:56:27;102606.56;;;5.88;85.63
64200;BME280;50516;52.272;5.136;2023-01-27T00:58:53;102615.38;;;5.83;85.90
64200;BME280;50516;52.272;5.136;2023-01-27T01:01:18;102615.38;;;5.61;85.78
64200;BME280;50516;52.272;5.136;2023-01-27T01:03:43;102617.69;;;5.64;86.00
64200;BME280;50516;52.272;5.136;2023-01-27T01:06:15;102614.44;;;5.76;86.00
64200;BME280;50516;52.272;5.136;2023-01-27T01:08:41;102611.31;;;6.00;84.97
64200;BME280;50516;52.272;5.136;2023-01-27T01:11:09;102621.19;;;5.80;85.22
64200;BME280;50516;52.272;5.136;2023-01-27T01:13:37;102609.97;;;5.90;85.31
64200;BME280;50516;52.272;5.136;2023-01-27T01:16:17;102616.88;;;5.64;85.54
64200;BME280;50516;52.272;5.136;2023-01-27T01:18:43;102611.09;;;5.74;85.18
64200;BME280;50516;52.272;5.136;2023-01-27T01:21:08;102622.38;;;5.71;85.39
64200;BME280;50516;52.272;5.136;2023-01-27T01:23:38;102619.91;;;5.76;84.87
64200;BME280;50516;52.272;5.136;2023-01-27T01:26:04;102624.66;;;5.95;84.60
64200;BME280;50516;52.272;5.136;2023-01-27T01:28:30;102621.28;;;6.15;84.01
64200;BME280;50516;52.272;5.136;2023-01-27T01:30:55;102620.91;;;6.25;83.10
64200;BME280;50516;52.272;5.136;2023-01-27T01:33:21;102624.56;;;6.03;83.49
64200;BME280;50516;52.272;5.136;2023-01-27T01:35:46;102627.09;;;6.05;83.68
64200;BME280;50516;52.272;5.136;2023-01-27T01:38:12;102626.63;;;6.01;83.64
64200;BME280;50516;52.272;5.136;2023-01-27T01:40:42;102634.69;;;5.88;83.66
64200;BME280;50516;52.272;5.136;2023-01-27T01:43:14;102630.78;;;5.97;83.81
64200;BME280;50516;52.272;5.136;2023-01-27T01:45:45;102633.59;;;6.04;83.60
64200;BME280;50516;52.272;5.136;2023-01-27T01:48:15;102623.97;;;6.08;82.48
64200;BME280;50516;52.272;5.136;2023-01-27T01:50:46;102627.47;;;6.02;83.12
64200;BME280;50516;52.272;5.136;2023-01-27T01:53:13;102631.38;;;5.93;83.42
64200;BME280;50516;52.272;5.136;2023-01-27T01:55:39;102629.75;;;5.98;83.32
64200;BME280;50516;52.272;5.136;2023-01-27T01:58:07;102636.25;;;6.26;82.37
64200;BME280;50516;52.272;5.136;2023-01-27T02:00:34;102631.75;;;6.11;82.92
64200;BME280;50516;52.272;5.136;2023-01-27T02:03:00;102642.84;;;6.10;82.98
64200;BME280;50516;52.272;5.136;2023-01-27T02:05:34;102637.78;;;6.07;83.16
64200;BME280;50516;52.272;5.136;2023-01-27T02:08:14;102648.06;;;5.83;84.30
64200;BME280;50516;52.272;5.136;2023-01-27T02:10:41;102638.44;;;6.09;83.43
64200;BME280;50516;52.272;5.136;2023-01-27T02:13:07;102651.56;;;5.98;83.38
64200;BME280;50516;52.272;5.136;2023-01-27T02:15:33;102648.72;;;5.85;83.69
64200;BME280;50516;52.272;5.136;2023-01-27T02:17:59;102646.97;;;5.56;84.47
64200;BME280;50516;52.272;5.136;2023-01-27T02:20:46;102644.84;;;5.51;84.49
64200;BME280;50516;52.272;5.136;2023-01-27T02:28:29;102648.44;;;5.37;84.22
64200;BME280;50516;52.272;5.136;2023-01-27T02:30:55;102647.94;;;5.48;83.94
64200;BME280;50516;52.272;5.136;2023-01-27T02:33:21;102655.16;;;5.56;83.76
64200;BME280;50516;52.272;5.136;2023-01-27T02:38:24;102651.75;;;5.32;83.94
64200;BME280;50516;52.272;5.136;2023-01-27T02:40:52;102657.47;;;5.37;84.14
64200;BME280;50516;52.272;5.136;2023-01-27T02:43:19;102653.66;;;5.53;83.40
64200;BME280;50516;52.272;5.136;2023-01-27T02:45:45;102653.56;;;5.25;84.32
64200;BME280;50516;52.272;5.136;2023-01-27T02:48:12;102673.78;;;5.16;84.86
64200;BME280;50516;52.272;5.136;2023-01-27T02:50:37;102658.19;;;5.09;85.09
64200;BME280;50516;52.272;5.136;2023-01-27T02:53:02;102657.69;;;5.21;84.04
64200;BME280;50516;52.272;5.136;2023-01-27T02:55:28;102660.34;;;5.14;84.64
64200;BME280;50516;52.272;5.136;2023-01-27T02:57:53;102668.50;;;5.14;84.25
64200;BME280;50516;52.272;5.136;2023-01-27T03:00:19;102671.72;;;5.03;84.07
64200;BME280;50516;52.272;5.136;2023-01-27T03:02:44;102677.44;;;5.08;83.88
64200;BME280;50516;52.272;5.136;2023-01-27T03:05:09;102674.09;;;4.91;84.23
64200;BME280;50516;52.272;5.136;2023-01-27T03:07:35;102677.19;;;4.88;84.65
64200;BME280;50516;52.272;5.136;2023-01-27T03:10:00;102673.81;;;4.86;84.27
64200;BME280;50516;52.272;5.136;2023-01-27T03:12:26;102682.81;;;4.71;84.91
64200;BME280;50516;52.272;5.136;2023-01-27T03:14:51;102675.97;;;4.75;84.89
64200;BME280;50516;52.272;5.136;2023-01-27T03:17:36;102679.53;;;4.76;84.88
64200;BME280;50516;52.272;5.136;2023-01-27T03:20:21;102687.97;;;4.81;84.29
64200;BME280;50516;52.272;5.136;2023-01-27T03:22:47;102686.69;;;4.77;84.80
64200;BME280;50516;52.272;5.136;2023-01-27T03:25:13;102679.81;;;4.66;85.59
64200;BME280;50516;52.272;5.136;2023-01-27T03:27:38;102689.22;;;4.64;85.53
64200;BME280;50516;52.272;5.136;2023-01-27T03:30:04;102685.25;;;4.81;85.17
64200;BME280;50516;52.272;5.136;2023-01-27T03:32:31;102688.66;;;4.83;84.60
64200;BME280;50516;52.272;5.136;2023-01-27T03:34:56;102686.22;;;4.73;84.51
64200;BME280;50516;52.272;5.136;2023-01-27T03:37:26;102686.97;;;4.67;84.66
64200;BME280;50516;52.272;5.136;2023-01-27T03:40:11;102695.41;;;4.57;85.16
64200;BME280;50516;52.272;5.136;2023-01-27T03:42:55;102689.69;;;4.67;84.76
64200;BME280;50516;52.272;5.136;2023-01-27T03:45:42;102688.16;;;4.65;84.60
64200;BME280;50516;52.272;5.136;2023-01-27T03:48:27;102698.13;;;4.57;84.48
64200;BME280;50516;52.272;5.136;2023-01-27T03:50:56;102709.94;;;4.50;84.65
64200;BME280;50516;52.272;5.136;2023-01-27T03:53:22;102705.63;;;4.70;83.81
64200;BME280;50516;52.272;5.136;2023-01-27T03:55:47;102716.06;;;4.82;83.33
64200;BME280;50516;52.272;5.136;2023-01-27T03:58:20;102711.91;;;4.71;83.44
64200;BME280;50516;52.272;5.136;2023-01-27T04:00:48;102717.16;;;4.57;83.19
64200;BME280;50516;52.272;5.136;2023-01-27T04:03:14;102716.97;;;4.59;83.69
64200;BME280;50516;52.272;5.136;2023-01-27T04:06:05;102711.25;;;4.69;82.83
64200;BME280;50516;52.272;5.136;2023-01-27T04:08:49;102713.22;;;4.90;82.47
64200;BME280;50516;52.272;5.136;2023-01-27T04:11:15;102722.41;;;5.04;81.72
64200;BME280;50516;52.272;5.136;2023-01-27T04:14:00;102722.88;;;4.92;81.58
64200;BME280;50516;52.272;5.136;2023-01-27T04:16:26;102721.09;;;5.00;81.09
64200;BME280;50516;52.272;5.136;2023-01-27T04:18:54;102721.31;;;4.98;81.01
64200;BME280;50516;52.272;5.136;2023-01-27T04:21:20;102722.72;;;5.09;80.83
64200;BME280;50516;52.272;5.136;2023-01-27T04:23:45;102718.19;;;5.16;80.28
64200;BME280;50516;52.272;5.136;2023-01-27T04:26:11;102722.34;;;5.12;80.04
64200;BME280;50516;52.272;5.136;2023-01-27T04:28:36;102720.53;;;5.19;80.26
64200;BME280;50516;52.272;5.136;2023-01-27T04:31:02;102728.81;;;5.11;80.33
64200;BME280;50516;52.272;5.136;2023-01-27T04:33:27;102720.72;;;5.18;80.94
64200;BME280;50516;52.272;5.136;2023-01-27T04:35:54;102717.72;;;5.12;80.10
64200;BME280;50516;52.272;5.136;2023-01-27T04:38:19;102726.81;;;5.05;80.47
64200;BME280;50516;52.272;5.136;2023-01-27T04:40:45;102717.63;;;5.06;80.21
64200;BME280;50516;52.272;5.136;2023-01-27T04:43:10;102730.19;;;5.07;79.89
64200;BME280;50516;52.272;5.136;2023-01-27T04:45:36;102732.00;;;5.00;79.71
64200;BME280;50516;52.272;5.136;2023-01-27T04:48:01;102722.53;;;5.10;79.40
64200;BME280;50516;52.272;5.136;2023-01-27T04:50:27;102735.66;;;5.22;79.09
64200;BME280;50516;52.272;5.136;2023-01-27T04:52:52;102734.34;;;5.03;78.15
64200;BME280;50516;52.272;5.136;2023-01-27T04:55:17;102736.22;;;4.87;79.01
64200;BME280;50516;52.272;5.136;2023-01-27T04:57:43;102732.94;;;4.92;78.79
64200;BME280;50516;52.272;5.136;2023-01-27T05:00:09;102739.34;;;4.99;78.66
64200;BME280;50516;52.272;5.136;2023-01-27T05:02:35;102728.72;;;5.04;78.86
64200;BME280;50516;52.272;5.136;2023-01-27T05:05:00;102739.03;;;5.09;78.12
64200;BME280;50516;52.272;5.136;2023-01-27T05:07:29;102725.25;;;5.10;78.35
64200;BME280;50516;52.272;5.136;2023-01-27T05:09:55;102736.38;;;5.30;77.85
64200;BME280;50516;52.272;5.136;2023-01-27T05:12:20;102746.97;;;5.40;77.00
64200;BME280;50516;52.272;5.136;2023-01-27T05:14:45;102755.56;;;5.22;77.78
64200;BME280;50516;52.272;5.136;2023-01-27T05:17:11;102746.53;;;5.07;76.99
64200;BME280;50516;52.272;5.136;2023-01-27T05:19:36;102753.03;;;4.91;77.02
64200;BME280;50516;52.272;5.136;2023-01-27T05:22:01;102748.34;;;5.00;77.01
64200;BME280;50516;52.272;5.136;2023-01-27T05:24:27;102744.66;;;4.92;77.17
64200;BME280;50516;52.272;5.136;2023-01-27T05:26:52;102744.88;;;5.06;77.06
64200;BME280;50516;52.272;5.136;2023-01-27T05:29:18;102748.59;;;5.05;76.47
64200;BME280;50516;52.272;5.136;2023-01-27T05:31:44;102752.19;;;5.20;76.66
64200;BME280;50516;52.272;5.136;2023-01-27T05:34:09;102756.78;;;4.90;75.64
64200;BME280;50516;52.272;5.136;2023-01-27T05:36:34;102762.13;;;4.83;75.93
64200;BME280;50516;52.272;5.136;2023-01-27T05:39:00;102764.19;;;4.81;75.48
64200;BME280;50516;52.272;5.136;2023-01-27T05:41:28;102773.13;;;4.90;75.73
64200;BME280;50516;52.272;5.136;2023-01-27T05:43:55;102772.56;;;5.09;75.05
64200;BME280;50516;52.272;5.136;2023-01-27T05:46:26;102776.97;;;4.96;74.90
64200;BME280;50516;52.272;5.136;2023-01-27T05:48:55;102775.09;;;4.96;75.06
64200;BME280;50516;52.272;5.136;2023-01-27T05:51:23;102783.34;;;5.03;74.88
64200;BME280;50516;52.272;5.136;2023-01-27T05:53:48;102782.13;;;5.05;74.29
64200;BME280;50516;52.272;5.136;2023-01-27T05:56:16;102783.91;;;4.98;74.74
64200;BME280;50516;52.272;5.136;2023-01-27T05:58:43;102780.72;;;4.94;74.74
64200;BME280;50516;52.272;5.136;2023-01-27T06:01:11;102785.22;;;5.17;74.57
64200;BME280;50516;52.272;5.136;2023-01-27T06:03:37;102787.28;;;5.15;74.22
64200;BME280;50516;52.272;5.136;2023-01-27T06:06:04;102784.00;;;5.20;74.11
64200;BME280;50516;52.272;5.136;2023-01-27T06:08:30;102789.81;;;5.17;73.92
64200;BME280;50516;52.272;5.136;2023-01-27T06:10:55;102786.91;;;4.88;73.81
64200;BME280;50516;52.272;5.136;2023-01-27T06:13:22;102796.75;;;4.74;72.34
64200;BME280;50516;52.272;5.136;2023-01-27T06:15:48;102802.16;;;4.60;72.35
64200;BME280;50516;52.272;5.136;2023-01-27T06:18:15;102794.66;;;4.62;71.86
64200;BME280;50516;52.272;5.136;2023-01-27T06:20:41;102790.25;;;4.61;71.58
64200;BME280;50516;52.272;5.136;2023-01-27T06:23:08;102794.97;;;4.67;71.69
64200;BME280;50516;52.272;5.136;2023-01-27T06:25:39;102788.56;;;4.60;71.89
64200;BME280;50516;52.272;5.136;2023-01-27T06:28:05;102793.19;;;4.74;71.66
64200;BME280;50516;52.272;5.136;2023-01-27T06:30:35;102800.50;;;4.73;71.85
64200;BME280;50516;52.272;5.136;2023-01-27T06:33:01;102802.09;;;4.68;72.26
64200;BME280;50516;52.272;5.136;2023-01-27T06:35:28;102796.00;;;4.81;71.58
64200;BME280;50516;52.272;5.136;2023-01-27T06:37:53;102801.25;;;4.82;71.42
64200;BME280;50516;52.272;5.136;2023-01-27T06:40:19;102801.06;;;4.84;71.55
64200;BME280;50516;52.272;5.136;2023-01-27T06:42:44;102785.91;;;4.89;71.57
64200;BME280;50516;52.272;5.136;2023-01-27T06:45:11;102802.78;;;5.00;71.85
64200;BME280;50516;52.272;5.136;2023-01-27T06:47:38;102810.22;;;5.06;71.21
64200;BME280;50516;52.272;5.136;2023-01-27T06:50:05;102807.94;;;5.09;71.23
64200;BME280;50516;52.272;5.136;2023-01-27T06:52:30;102792.81;;;5.07;71.86
64200;BME280;50516;52.272;5.136;2023-01-27T06:54:55;102783.25;;;5.26;71.16
64200;BME280;50516;52.272;5.136;2023-01-27T06:57:21;102797.53;;;5.13;71.58
64200;BME280;50516;52.272;5.136;2023-01-27T06:59:46;102799.28;;;5.36;71.05
64200;BME280;50516;52.272;5.136;2023-01-27T07:02:11;102795.28;;;5.32;71.25
64200;BME280;50516;52.272;5.136;2023-01-27T07:04:37;102802.59;;;5.31;71.82
64200;BME280;50516;52.272;5.136;2023-01-27T07:07:02;102802.78;;;5.29;71.62
64200;BME280;50516;52.272;5.136;2023-01-27T07:09:28;102805.59;;;5.36;71.82
64200;BME280;50516;52.272;5.136;2023-01-27T07:11:53;102805.59;;;5.06;71.86
64200;BME280;50516;52.272;5.136;2023-01-27T07:14:19;102804.78;;;5.06;71.41
64200;BME280;50516;52.272;5.136;2023-01-27T07:16:44;102817.03;;;5.17;71.52
64200;BME280;50516;52.272;5.136;2023-01-27T07:19:10;102810.44;;;4.81;71.28
64200;BME280;50516;52.272;5.136;2023-01-27T07:21:36;102819.75;;;4.72;71.60
64200;BME280;50516;52.272;5.136;2023-01-27T07:24:02;102829.03;;;4.92;71.97
64200;BME280;50516;52.272;5.136;2023-01-27T07:26:28;102840.38;;;4.81;71.41
64200;BME280;50516;52.272;5.136;2023-01-27T07:28:54;102829.63;;;4.88;71.25
64200;BME280;50516;52.272;5.136;2023-01-27T07:31:20;102841.44;;;4.95;71.24
64200;BME280;50516;52.272;5.136;2023-01-27T07:33:45;102836.56;;;5.05;71.35
64200;BME280;50516;52.272;5.136;2023-01-27T07:36:11;102849.44;;;4.97;71.80
64200;BME280;50516;52.272;5.136;2023-01-27T07:38:36;102843.50;;;4.78;71.59
64200;BME280;50516;52.272;5.136;2023-01-27T07:41:04;102850.13;;;4.61;71.88
64200;BME280;50516;52.272;5.136;2023-01-27T07:43:30;102856.50;;;4.68;72.23
64200;BME280;50516;52.272;5.136;2023-01-27T07:45:56;102847.06;;;4.79;72.18
64200;BME280;50516;52.272;5.136;2023-01-27T07:48:21;102855.16;;;5.02;71.41
64200;BME280;50516;52.272;5.136;2023-01-27T07:50:47;102846.16;;;5.16;71.26
64200;BME280;50516;52.272;5.136;2023-01-27T07:53:12;102846.81;;;5.18;71.03
64200;BME280;50516;52.272;5.136;2023-01-27T07:55:38;102845.16;;;5.02;70.70
64200;BME280;50516;52.272;5.136;2023-01-27T07:58:03;102850.00;;;4.92;71.03
64200;BME280;50516;52.272;5.136;2023-01-27T08:00:29;102844.72;;;4.90;70.93
64200;BME280;50516;52.272;5.136;2023-01-27T08:02:56;102848.50;;;4.89;71.08
64200;BME280;50516;52.272;5.136;2023-01-27T08:05:22;102843.81;;;5.13;70.64
64200;BME280;50516;52.272;5.136;2023-01-27T08:07:52;102854.16;;;5.03;70.81
64200;BME280;50516;52.272;5.136;2023-01-27T08:10:18;102854.97;;;4.88;70.88
64200;BME280;50516;52.272;5.136;2023-01-27T08:12:44;102853.03;;;5.12;70.68
64200;BME280;50516;52.272;5.136;2023-01-27T08:15:10;102853.59;;;5.07;70.50
64200;BME280;50516;52.272;5.136;2023-01-27T08:17:36;102850.09;;;4.99;70.93
64200;BME280;50516;52.272;5.136;2023-01-27T08:20:02;102852.81;;;4.99;71.50
64200;BME280;50516;52.272;5.136;2023-01-27T08:22:28;102859.13;;;5.14;71.01
64200;BME280;50516;52.272;5.136;2023-01-27T08:24:53;102861.78;;;5.22;70.74
64200;BME280;50516;52.272;5.136;2023-01-27T08:27:19;102856.78;;;5.41;70.21
64200;BME280;50516;52.272;5.136;2023-01-27T08:29:44;102863.25;;;5.10;70.83
64200;BME280;50516;52.272;5.136;2023-01-27T08:32:10;102854.63;;;5.21;71.14
64200;BME280;50516;52.272;5.136;2023-01-27T08:34:37;102855.56;;;5.28;70.28
64200;BME280;50516;52.272;5.136;2023-01-27T08:37:03;102858.66;;;5.25;70.45
64200;BME280;50516;52.272;5.136;2023-01-27T08:39:28;102843.91;;;5.20;70.30
64200;BME280;50516;52.272;5.136;2023-01-27T08:41:54;102855.84;;;5.34;70.41
64200;BME280;50516;52.272;5.136;2023-01-27T08:44:19;102849.44;;;5.56;69.40
64200;BME280;50516;52.272;5.136;2023-01-27T08:46:45;102853.38;;;5.83;68.79
64200;BME280;50516;52.272;5.136;2023-01-27T08:49:10;102852.31;;;5.99;68.44
64200;BME280;50516;52.272;5.136;2023-01-27T08:51:38;102868.88;;;5.83;68.46
64200;BME280;50516;52.272;5.136;2023-01-27T08:54:05;102870.19;;;5.87;68.52
64200;BME280;50516;52.272;5.136;2023-01-27T08:56:31;102864.31;;;5.39;69.55
64200;BME280;50516;52.272;5.136;2023-01-27T08:58:56;102869.56;;;5.55;69.37
64200;BME280;50516;52.272;5.136;2023-01-27T09:01:22;102865.34;;;5.38;69.86
64200;BME280;50516;52.272;5.136;2023-01-27T09:03:48;102875.56;;;5.36;70.30
64200;BME280;50516;52.272;5.136;2023-01-27T09:06:14;102859.53;;;5.56;69.59
64200;BME280;50516;52.272;5.136;2023-01-27T09:08:40;102865.66;;;5.94;69.04
64200;BME280;50516;52.272;5.136;2023-01-27T09:11:23;102873.47;;;5.97;68.36
64200;BME280;50516;52.272;5.136;2023-01-27T09:13:49;102872.63;;;5.82;68.67
64200;BME280;50516;52.272;5.136;2023-01-27T09:16:14;102878.78;;;6.20;67.92
64200;BME280;50516;52.272;5.136;2023-01-27T09:18:39;102875.94;;;6.50;67.31
64200;BME280;50516;52.272;5.136;2023-01-27T09:21:06;102877.59;;;6.30;67.42
64200;BME280;50516;52.272;5.136;2023-01-27T09:23:32;102883.06;;;5.93;68.78
64200;BME280;50516;52.272;5.136;2023-01-27T09:25:58;102886.53;;;6.17;68.51
64200;BME280;50516;52.272;5.136;2023-01-27T09:28:24;102888.63;;;6.36;67.86
64200;BME280;50516;52.272;5.136;2023-01-27T09:30:50;102896.00;;;6.21;68.08
64200;BME280;50516;52.272;5.136;2023-01-27T09:33:15;102897.38;;;6.32;68.00
64200;BME280;50516;52.272;5.136;2023-01-27T09:35:44;102898.59;;;6.29;68.21
64200;BME280;50516;52.272;5.136;2023-01-27T09:38:15;102899.97;;;6.40;67.94
64200;BME280;50516;52.272;5.136;2023-01-27T09:46:46;102894.47;;;6.33;67.67
64200;BME280;50516;52.272;5.136;2023-01-27T09:52:10;102885.63;;;6.53;67.75
64200;BME280;50516;52.272;5.136;2023-01-27T10:12:46;102891.84;;;6.25;68.46
64200;BME280;50516;52.272;5.136;2023-01-27T10:14:42;102889.75;;;6.27;68.88
64200;BME280;50516;52.272;5.136;2023-01-27T10:20:06;102891.84;;;6.47;68.52
64200;BME280;50516;52.272;5.136;2023-01-27T10:28:04;102897.22;;;6.18;69.16
64200;BME280;50516;52.272;5.136;2023-01-27T10:30:35;102894.47;;;6.18;69.17
64200;BME280;50516;52.272;5.136;2023-01-27T10:33:20;102899.03;;;6.33;69.15
64200;BME280;50516;52.272;5.136;2023-01-27T10:35:51;102908.75;;;6.35;69.28
64200;BME280;50516;52.272;5.136;2023-01-27T10:44:10;102903.16;;;6.22;69.66
64200;BME280;50516;52.272;5.136;2023-01-27T10:49:38;102898.53;;;6.22;69.74
64200;BME280;50516;52.272;5.136;2023-01-27T10:52:28;102901.06;;;6.24;70.33
64200;BME280;50516;52.272;5.136;2023-01-27T10:54:59;102897.63;;;6.58;69.71
64200;BME280;50516;52.272;5.136;2023-01-27T10:57:33;102904.72;;;6.74;69.08
64200;BME280;50516;52.272;5.136;2023-01-27T11:00:04;102893.47;;;6.63;68.88
64200;BME280;50516;52.272;5.136;2023-01-27T11:02:41;102902.91;;;6.60;69.35
64200;BME280;50516;52.272;5.136;2023-01-27T11:05:33;102903.94;;;6.37;69.38
64200;BME280;50516;52.272;5.136;2023-01-27T11:08:14;102895.91;;;6.51;69.81
64200;BME280;50516;52.272;5.136;2023-01-27T11:10:47;102890.16;;;6.46;69.92
64200;BME280;50516;52.272;5.136;2023-01-27T11:13:32;102899.91;;;6.55;69.33
64200;BME280;50516;52.272;5.136;2023-01-27T11:15:59;102907.97;;;6.42;69.98
64200;BME280;50516;52.272;5.136;2023-01-27T11:18:27;102894.53;;;6.40;69.14
64200;BME280;50516;52.272;5.136;2023-01-27T11:20:56;102896.19;;;6.41;69.10
64200;BME280;50516;52.272;5.136;2023-01-27T11:23:37;102898.59;;;6.29;69.04
64200;BME280;50516;52.272;5.136;2023-01-27T11:32:29;102898.66;;;6.36;68.55
64200;BME280;50516;52.272;5.136;2023-01-27T11:37:28;102897.06;;;6.42;68.68
64200;BME280;50516;52.272;5.136;2023-01-27T11:39:55;102893.75;;;6.46;68.92
64200;BME280;50516;52.272;5.136;2023-01-27T11:42:21;102887.16;;;6.84;68.52
64200;BME280;50516;52.272;5.136;2023-01-27T11:44:49;102884.56;;;6.54;68.87
64200;BME280;50516;52.272;5.136;2023-01-27T11:47:31;102887.28;;;6.54;69.02
64200;BME280;50516;52.272;5.136;2023-01-27T11:49:59;102883.94;;;6.73;68.55
64200;BME280;50516;52.272;5.136;2023-01-27T11:52:26;102881.94;;;6.89;68.30
64200;BME280;50516;52.272;5.136;2023-01-27T11:55:26;102879.25;;;6.95;67.85
64200;BME280;50516;52.272;5.136;2023-01-27T11:58:21;102887.31;;;6.75;68.19
64200;BME280;50516;52.272;5.136;2023-01-27T12:01:04;102872.94;;;6.67;68.90
64200;BME280;50516;52.272;5.136;2023-01-27T12:04:01;102878.81;;;6.92;68.51
64200;BME280;50516;52.272;5.136;2023-01-27T12:09:38;102866.91;;;7.00;68.07
64200;BME280;50516;52.272;5.136;2023-01-27T12:12:24;102866.56;;;6.60;69.09
64200;BME280;50516;52.272;5.136;2023-01-27T12:17:28;102857.16;;;6.40;69.98
64200;BME280;50516;52.272;5.136;2023-01-27T12:19:56;102861.03;;;6.31;70.71
64200;BME280;50516;52.272;5.136;2023-01-27T12:22:27;102852.78;;;6.25;71.52
64200;BME280;50516;52.272;5.136;2023-01-27T12:25:00;102856.38;;;6.47;71.02
64200;BME280;50516;52.272;5.136;2023-01-27T12:27:29;102852.28;;;6.57;70.74
64200;BME280;50516;52.272;5.136;2023-01-27T12:30:05;102848.97;;;6.62;70.72
64200;BME280;50516;52.272;5.136;2023-01-27T12:32:40;102858.28;;;6.74;70.61
64200;BME280;50516;52.272;5.136;2023-01-27T12:35:20;102853.09;;;6.80;69.59
64200;BME280;50516;52.272;5.136;2023-01-27T12:37:47;102845.00;;;6.65;69.24
64200;BME280;50516;52.272;5.136;2023-01-27T12:40:22;102844.84;;;6.73;69.28
64200;BME280;50516;52.272;5.136;2023-01-27T12:45:30;102849.38;;;6.59;69.46
64200;BME280;50516;52.272;5.136;2023-01-27T12:50:53;102847.72;;;6.65;69.61
64200;BME280;50516;52.272;5.136;2023-01-27T12:53:24;102847.31;;;6.39;69.84
64200;BME280;50516;52.272;5.136;2023-01-27T12:56:20;102857.69;;;6.51;69.70
64200;BME280;50516;52.272;5.136;2023-01-27T12:58:54;102845.47;;;6.47;69.26
64200;BME280;50516;52.272;5.136;2023-01-27T13:01:29;102844.03;;;6.29;69.64
64200;BME280;50516;52.272;5.136;2023-01-27T13:04:04;102836.69;;;6.51;69.37
64200;BME280;50516;52.272;5.136;2023-01-27T13:06:32;102844.81;;;6.45;68.80
64200;BME280;50516;52.272;5.136;2023-01-27T13:08:59;102845.84;;;6.22;68.67
64200;BME280;50516;52.272;5.136;2023-01-27T13:11:32;102842.88;;;6.38;68.57
64200;BME280;50516;52.272;5.136;2023-01-27T13:13:59;102837.88;;;6.64;67.95
64200;BME280;50516;52.272;5.136;2023-01-27T13:16:28;102845.56;;;6.60;68.44
64200;BME280;50516;52.272;5.136;2023-01-27T13:18:59;102837.22;;;6.40;68.23
64200;BME280;50516;52.272;5.136;2023-01-27T13:21:34;102835.59;;;6.24;68.61
64200;BME280;50516;52.272;5.136;2023-01-27T13:24:04;102838.56;;;6.08;69.09
64200;BME280;50516;52.272;5.136;2023-01-27T13:26:35;102839.59;;;6.07;69.87
64200;BME280;50516;52.272;5.136;2023-01-27T13:37:18;102856.16;;;6.05;70.35
64200;BME280;50516;52.272;5.136;2023-01-27T13:43:26;102841.88;;;5.88;70.86
64200;BME280;50516;52.272;5.136;2023-01-27T13:46:19;102856.16;;;5.90;70.77
64200;BME280;50516;52.272;5.136;2023-01-27T13:49:01;102845.88;;;6.07;71.02
64200;BME280;50516;52.272;5.136;2023-01-27T13:51:29;102852.13;;;6.01;71.19
64200;BME280;50516;52.272;5.136;2023-01-27T13:54:00;102858.69;;;6.07;71.25
64200;BME280;50516;52.272;5.136;2023-01-27T13:59:37;102858.81;;;5.98;72.22
64200;BME280;50516;52.272;5.136;2023-01-27T14:09:54;102866.59;;;6.01;71.85
64200;BME280;50516;52.272;5.136;2023-01-27T14:17:45;102871.09;;;5.43;73.81
64200;BME280;50516;52.272;5.136;2023-01-27T14:22:53;102871.44;;;5.40;73.87
64200;BME280;50516;52.272;5.136;2023-01-27T14:28:18;102880.66;;;5.39;74.30
64200;BME280;50516;52.272;5.136;2023-01-27T14:31:10;102875.66;;;5.12;74.52
64200;BME280;50516;52.272;5.136;2023-01-27T14:42:12;102872.16;;;5.04;74.83
64200;BME280;50516;52.272;5.136;2023-01-27T14:49:58;102885.06;;;5.25;73.99
64200;BME280;50516;52.272;5.136;2023-01-27T14:58:12;102885.53;;;5.28;74.35
64200;BME280;50516;52.272;5.136;2023-01-27T15:01:01;102889.78;;;5.46;74.21
64200;BME280;50516;52.272;5.136;2023-01-27T15:03:53;102889.75;;;5.61;73.46
64200;BME280;50516;52.272;5.136;2023-01-27T15:09:22;102895.84;;;5.18;75.13
64200;BME280;50516;52.272;5.136;2023-01-27T15:27:37;102904.41;;;5.45;75.56
64200;BME280;50516;52.272;5.136;2023-01-27T15:30:16;102907.22;;;5.66;74.83
64200;BME280;50516;52.272;5.136;2023-01-27T15:32:44;102908.66;;;5.47;74.93
64200;BME280;50516;52.272;5.136;2023-01-27T15:43:21;102908.66;;;5.62;73.82